Time;durP1;ratioP1;P1;durP2;ratioP2;P2;SDS_P1;SDS_P2;PMS_P1;PMS_P2;Temp;Humidity;BMP_temperature;BMP_pressure;BME280_temperature;BME280_humidity;BME280_pressure;Samples;Min_cycle;Max_cycle;Signal;HPM_P1;HPM_P2
2020/12/06 00:00:15;;;;;;;8.65;6.90;;;20.30;49.00;;;;;;5021576;28;20041;-49
2020/12/06 00:02:41;;;;;;;9.73;7.13;;;20.20;49.00;;;;;;5023010;28;20029;-45
2020/12/06 00:05:07;;;;;;;8.73;7.10;;;20.20;49.00;;;;;;5020469;28;20030;-45
2020/12/06 00:07:33;;;;;;;7.50;6.15;;;20.20;49.10;;;;;;5021664;28;20065;-45
2020/12/06 00:09:58;;;;;;;8.27;6.75;;;20.10;49.00;;;;;;5019333;28;20127;-48
2020/12/06 00:12:24;;;;;;;8.95;7.55;;;20.10;49.00;;;;;;5017289;28;20030;-45
2020/12/06 00:14:49;;;;;;;7.95;6.10;;;20.10;49.10;;;;;;5013156;28;20567;-45
2020/12/06 00:17:14;;;;;;;8.40;6.47;;;20.00;49.00;;;;;;5021872;28;20037;-46
2020/12/06 00:19:40;;;;;;;7.60;5.68;;;20.00;49.10;;;;;;5020758;28;20080;-45
2020/12/06 00:22:05;;;;;;;7.28;6.25;;;19.90;49.00;;;;;;5016774;28;20054;-47
2020/12/06 00:24:31;;;;;;;7.65;5.55;;;19.90;49.00;;;;;;5021455;28;20030;-44
2020/12/06 00:26:58;;;;;;;7.85;5.97;;;19.90;49.10;;;;;;5022162;28;20030;-44
2020/12/06 00:29:23;;;;;;;8.27;6.65;;;19.80;49.00;;;;;;5021568;28;20415;-46
2020/12/06 00:31:48;;;;;;;7.75;6.97;;;19.80;49.10;;;;;;5020717;28;20052;-44
2020/12/06 00:34:14;;;;;;;8.90;6.68;;;19.80;49.10;;;;;;5022905;28;20041;-48
2020/12/06 00:36:39;;;;;;;5.90;5.15;;;19.70;48.90;;;;;;5022128;28;20103;-48
2020/12/06 00:39:05;;;;;;;7.53;6.10;;;19.70;49.00;;;;;;5016956;28;20405;-45
2020/12/06 00:41:30;;;;;;;7.75;5.43;;;19.70;48.90;;;;;;5021097;28;20033;-46
2020/12/06 00:43:56;;;;;;;8.40;6.25;;;19.60;48.90;;;;;;5022769;28;21285;-46
2020/12/06 00:46:22;;;;;;;7.65;5.90;;;19.70;49.00;;;;;;5025657;28;20380;-48
2020/12/06 00:48:47;;;;;;;8.35;6.25;;;19.60;49.00;;;;;;5024791;28;20091;-45
2020/12/06 00:51:13;;;;;;;8.05;6.25;;;19.50;49.00;;;;;;5025481;28;20046;-45
2020/12/06 00:53:41;;;;;;;7.93;6.03;;;19.60;49.10;;;;;;5025023;28;20060;-45
2020/12/06 00:56:06;;;;;;;8.70;6.38;;;19.50;49.10;;;;;;5024056;28;20033;-46
2020/12/06 00:58:32;;;;;;;6.85;6.15;;;19.50;49.10;;;;;;5025723;28;20033;-51
2020/12/06 01:00:57;;;;;;;7.93;6.38;;;19.50;49.10;;;;;;5024663;28;20034;-45
2020/12/06 01:03:23;;;;;;;8.25;6.32;;;19.40;49.10;;;;;;5021639;28;20314;-45
2020/12/06 01:05:48;;;;;;;7.00;6.03;;;19.40;49.10;;;;;;5025328;28;20044;-45
2020/12/06 01:08:14;;;;;;;6.95;5.57;;;19.40;49.10;;;;;;5024062;28;20112;-45
2020/12/06 01:10:39;;;;;;;7.55;6.15;;;19.30;49.20;;;;;;5025160;28;20041;-48
2020/12/06 01:13:05;;;;;;;6.85;5.78;;;19.30;49.20;;;;;;5024821;28;20564;-48
2020/12/06 01:15:30;;;;;;;6.68;5.88;;;19.30;49.30;;;;;;5025103;28;20033;-45
2020/12/06 01:17:56;;;;;;;7.20;5.57;;;19.30;49.30;;;;;;5025028;28;20030;-45
2020/12/06 01:20:21;;;;;;;8.20;6.47;;;19.20;49.30;;;;;;5025515;28;20072;-53
2020/12/06 01:22:47;;;;;;;7.15;6.45;;;19.20;49.30;;;;;;5025743;28;20491;-45
2020/12/06 01:25:12;;;;;;;7.18;5.80;;;19.20;49.30;;;;;;5024829;28;20033;-45
2020/12/06 01:27:38;;;;;;;6.80;5.97;;;19.20;49.30;;;;;;5024329;28;20032;-45
2020/12/06 01:30:04;;;;;;;6.55;5.90;;;19.20;49.40;;;;;;5023864;28;20033;-45
2020/12/06 01:32:32;;;;;;;7.63;6.32;;;19.10;49.40;;;;;;5024491;28;20040;-49
2020/12/06 01:34:58;;;;;;;7.75;6.38;;;19.10;49.40;;;;;;5024814;28;20111;-45
2020/12/06 01:37:24;;;;;;;7.32;6.55;;;19.10;49.30;;;;;;5024777;28;20049;-45
2020/12/06 01:39:49;;;;;;;7.63;6.68;;;19.10;49.30;;;;;;5023638;28;20041;-45
2020/12/06 01:42:15;;;;;;;8.02;6.47;;;19.10;49.40;;;;;;5023880;28;20171;-45
2020/12/06 01:44:40;;;;;;;7.70;6.65;;;19.00;49.60;;;;;;5024255;28;20029;-47
2020/12/06 01:47:06;;;;;;;7.00;5.82;;;19.10;49.70;;;;;;5025140;28;20080;-45
2020/12/06 01:49:35;;;;;;;6.35;5.30;;;19.20;49.90;;;;;;5024011;28;20384;-45
2020/12/06 01:52:01;;;;;;;6.07;5.00;;;19.50;50.30;;;;;;5023060;28;20034;-45
2020/12/06 01:54:26;;;;;;;5.88;5.25;;;19.70;50.50;;;;;;5022613;28;20025;-46
2020/12/06 01:56:52;;;;;;;7.35;6.20;;;20.00;50.60;;;;;;5023720;28;20032;-48
2020/12/06 01:59:18;;;;;;;6.32;5.70;;;20.10;50.40;;;;;;5024224;28;20033;-48
2020/12/06 02:01:58;;;;;;;8.43;5.82;;;20.20;50.30;;;;;;5023867;28;20047;-48
2020/12/06 02:04:25;;;;;;;6.95;5.20;;;20.40;50.20;;;;;;5025189;28;20025;-46
2020/12/06 02:06:50;;;;;;;7.38;5.47;;;20.40;50.00;;;;;;5024883;28;20069;-45
2020/12/06 02:09:16;;;;;;;5.60;5.07;;;20.50;49.90;;;;;;5024295;28;20087;-45
2020/12/06 02:11:41;;;;;;;5.93;5.15;;;20.50;49.80;;;;;;5016440;28;20044;-45
2020/12/06 02:14:09;;;;;;;6.03;5.38;;;20.50;49.60;;;;;;5023752;28;20099;-46
2020/12/06 02:16:34;;;;;;;5.85;5.10;;;20.50;49.40;;;;;;5024530;28;20044;-46
2020/12/06 02:19:00;;;;;;;6.03;5.25;;;20.50;49.30;;;;;;5024451;28;20526;-44
2020/12/06 02:21:25;;;;;;;5.57;5.00;;;20.50;49.20;;;;;;5024175;28;20259;-45
2020/12/06 02:23:51;;;;;;;5.85;4.97;;;20.50;49.10;;;;;;5024503;28;20099;-45
2020/12/06 02:26:16;;;;;;;5.75;4.95;;;20.50;49.00;;;;;;5022613;28;20052;-44
2020/12/06 02:28:42;;;;;;;5.97;5.15;;;20.40;48.90;;;;;;5024799;28;20048;-45
2020/12/06 02:31:10;;;;;;;5.45;4.90;;;20.40;48.90;;;;;;5024436;28;20506;-48
2020/12/06 02:33:36;;;;;;;6.95;5.78;;;20.40;48.70;;;;;;5024324;28;20249;-44
2020/12/06 02:36:01;;;;;;;6.38;5.47;;;20.40;48.80;;;;;;5024222;28;20041;-45
2020/12/06 02:38:27;;;;;;;5.95;5.38;;;20.40;48.70;;;;;;5025003;28;20041;-47
2020/12/06 02:40:53;;;;;;;5.72;5.10;;;20.30;48.70;;;;;;5023027;28;20041;-45
2020/12/06 02:43:18;;;;;;;6.05;5.30;;;20.30;48.60;;;;;;5024492;28;20037;-47
2020/12/06 02:45:43;;;;;;;6.53;5.65;;;20.30;48.60;;;;;;5023417;28;20241;-45
2020/12/06 02:48:09;;;;;;;8.00;6.15;;;20.20;48.50;;;;;;5023189;28;20509;-45
2020/12/06 02:50:34;;;;;;;7.10;5.43;;;20.20;48.50;;;;;;5023390;28;20041;-45
2020/12/06 02:53:00;;;;;;;6.60;5.85;;;20.10;48.50;;;;;;5023644;28;20037;-46
2020/12/06 02:55:26;;;;;;;6.25;5.65;;;20.10;48.60;;;;;;5024860;28;20041;-45
2020/12/06 02:57:52;;;;;;;5.57;5.03;;;20.10;48.60;;;;;;5023570;28;20506;-45
2020/12/06 03:00:17;;;;;;;5.25;4.75;;;20.00;48.60;;;;;;5021536;28;20095;-44
2020/12/06 03:02:43;;;;;;;6.90;5.80;;;20.00;48.60;;;;;;4986479;23;20547;-45
2020/12/06 03:05:08;;;;;;;6.25;5.60;;;19.90;48.60;;;;;;4963577;28;20027;-45
2020/12/06 03:07:34;;;;;;;7.32;6.10;;;19.90;48.60;;;;;;4964725;28;20035;-45
2020/12/06 03:09:59;;;;;;;5.93;5.35;;;19.90;48.70;;;;;;4965392;28;20046;-45
2020/12/06 03:12:25;;;;;;;6.85;5.35;;;19.90;48.70;;;;;;4963605;28;20049;-45
2020/12/06 03:14:50;;;;;;;6.05;5.45;;;19.80;49.30;;;;;;4964003;28;20508;-44
2020/12/06 03:17:16;;;;;;;6.05;5.45;;;19.80;48.60;;;;;;4964490;28;20066;-46
2020/12/06 03:19:41;;;;;;;6.15;5.38;;;19.70;48.60;;;;;;4964928;28;20055;-45
2020/12/06 03:22:06;;;;;;;6.40;5.47;;;19.70;48.60;;;;;;4964020;28;20235;-45
2020/12/06 03:24:32;;;;;;;6.55;5.85;;;19.70;48.70;;;;;;4963613;28;20404;-46
2020/12/06 03:26:57;;;;;;;6.60;5.50;;;19.70;48.60;;;;;;4964409;28;20038;-44
2020/12/06 03:29:23;;;;;;;5.60;5.10;;;19.60;48.70;;;;;;4964384;28;20038;-44
2020/12/06 03:31:48;;;;;;;5.85;5.25;;;19.60;48.70;;;;;;4964255;28;20719;-45
2020/12/06 03:34:14;;;;;;;5.43;4.93;;;19.50;48.60;;;;;;4963694;28;20042;-45
2020/12/06 03:36:39;;;;;;;6.28;5.68;;;19.50;48.70;;;;;;4964211;28;20035;-44
2020/12/06 03:39:05;;;;;;;7.25;5.13;;;19.50;48.70;;;;;;4964109;28;20044;-45
2020/12/06 03:41:30;;;;;;;6.00;5.40;;;19.50;48.80;;;;;;4964356;28;20039;-44
2020/12/06 03:43:56;;;;;;;6.65;5.88;;;19.40;48.80;;;;;;4964618;28;20197;-44
2020/12/06 03:46:21;;;;;;;7.18;5.47;;;19.40;48.80;;;;;;4963575;28;20130;-44
2020/12/06 03:48:47;;;;;;;5.30;4.78;;;19.40;48.90;;;;;;4964081;28;20074;-45
2020/12/06 03:51:12;;;;;;;5.95;5.35;;;19.30;48.90;;;;;;4963906;28;20105;-44
2020/12/06 03:53:38;;;;;;;6.03;5.50;;;19.30;48.90;;;;;;4964314;28;20411;-44
2020/12/06 03:56:03;;;;;;;5.88;5.28;;;19.30;48.80;;;;;;4964733;28;20507;-45
2020/12/06 03:58:29;;;;;;;6.38;5.32;;;19.20;48.90;;;;;;4963404;28;20141;-44
2020/12/06 04:00:54;;;;;;;6.22;5.57;;;19.20;48.90;;;;;;4963181;28;20050;-44
2020/12/06 04:03:20;;;;;;;6.72;5.65;;;19.20;48.90;;;;;;4963510;28;20067;-46
2020/12/06 04:05:45;;;;;;;5.85;5.35;;;19.20;48.90;;;;;;4964382;28;20126;-45
2020/12/06 04:08:11;;;;;;;5.88;5.32;;;19.20;48.90;;;;;;4963963;28;20043;-44
2020/12/06 04:10:36;;;;;;;6.45;5.78;;;19.10;48.90;;;;;;4962157;28;20294;-44
2020/12/06 04:13:02;;;;;;;6.55;5.13;;;19.10;48.90;;;;;;4964710;28;20041;-45
2020/12/06 04:15:27;;;;;;;6.20;5.20;;;19.10;49.00;;;;;;4963544;28;20114;-45
2020/12/06 04:17:53;;;;;;;6.95;6.13;;;19.10;49.00;;;;;;4966959;28;20163;-45
2020/12/06 04:20:18;;;;;;;5.90;5.30;;;19.00;49.00;;;;;;4967716;28;20165;-44
2020/12/06 04:22:44;;;;;;;6.35;5.45;;;19.00;49.10;;;;;;4966465;28;20726;-44
2020/12/06 04:25:10;;;;;;;6.82;6.18;;;19.00;49.20;;;;;;4967332;28;20038;-45
2020/12/06 04:27:35;;;;;;;5.80;5.20;;;19.00;49.20;;;;;;4967885;28;20038;-45
2020/12/06 04:30:01;;;;;;;5.55;5.05;;;19.10;49.20;;;;;;4967410;28;20043;-44
2020/12/06 04:32:26;;;;;;;5.65;4.80;;;19.20;49.50;;;;;;4966757;28;20429;-45
2020/12/06 04:34:52;;;;;;;5.60;5.10;;;19.40;49.70;;;;;;4967270;28;20035;-45
2020/12/06 04:37:17;;;;;;;5.82;5.22;;;19.50;49.80;;;;;;4966479;28;20038;-44
2020/12/06 04:39:43;;;;;;;4.95;4.45;;;19.70;49.90;;;;;;4967436;28;20030;-45
2020/12/06 04:42:08;;;;;;;5.22;4.72;;;19.80;50.00;;;;;;4966967;28;20414;-45
2020/12/06 04:44:34;;;;;;;5.57;5.07;;;19.90;49.90;;;;;;4966661;28;20046;-46
2020/12/06 04:47:01;;;;;;;5.22;4.47;;;20.00;49.80;;;;;;4965155;28;20504;-45
2020/12/06 04:49:30;;;;;;;5.60;4.88;;;20.10;49.70;;;;;;4966694;28;20046;-45
2020/12/06 04:51:56;;;;;;;5.18;4.68;;;20.20;49.60;;;;;;4960077;28;20110;-44
2020/12/06 04:54:26;;;;;;;5.05;4.55;;;20.20;49.40;;;;;;4967112;28;20628;-45
2020/12/06 04:56:51;;;;;;;5.22;4.72;;;20.20;49.30;;;;;;4950333;28;20039;-45
2020/12/06 04:59:17;;;;;;;4.90;4.30;;;20.20;49.20;;;;;;4949582;28;20526;-46
2020/12/06 05:01:42;;;;;;;5.57;4.78;;;20.20;49.10;;;;;;4948713;28;20062;-45
2020/12/06 05:04:13;;;;;;;4.88;4.45;;;20.20;49.00;;;;;;4966248;28;20045;-44
2020/12/06 05:06:41;;;;;;;4.88;4.35;;;20.20;48.90;;;;;;4966978;28;20121;-45
2020/12/06 05:09:14;;;;;;;4.80;4.40;;;20.20;48.90;;;;;;4966850;28;20061;-45
2020/12/06 05:11:40;;;;;;;5.00;4.50;;;20.20;48.70;;;;;;4981756;28;20047;-45
2020/12/06 05:14:06;;;;;;;5.68;5.18;;;20.10;48.60;;;;;;4981300;28;20039;-45
2020/12/06 05:16:35;;;;;;;5.63;5.03;;;20.20;48.70;;;;;;4966170;28;20041;-45
2020/12/06 05:19:01;;;;;;;5.20;4.70;;;20.10;48.60;;;;;;4966779;28;20393;-44
2020/12/06 05:21:37;;;;;;;5.07;4.57;;;20.10;48.50;;;;;;4964989;28;20050;-46
2020/12/06 05:24:03;;;;;;;5.82;5.05;;;20.00;48.50;;;;;;4965724;28;20046;-46
2020/12/06 05:26:28;;;;;;;5.25;4.75;;;20.00;48.40;;;;;;4966126;28;20066;-45
2020/12/06 05:28:54;;;;;;;5.63;5.03;;;20.00;48.30;;;;;;4979963;28;20039;-45
2020/12/06 05:31:23;;;;;;;5.60;5.05;;;19.90;48.30;;;;;;4966112;28;20057;-44
2020/12/06 05:33:49;;;;;;;8.60;5.90;;;19.90;48.20;;;;;;4966272;28;20057;-45
2020/12/06 05:36:15;;;;;;;5.20;4.70;;;19.90;48.20;;;;;;4966167;28;20508;-45
2020/12/06 05:38:40;;;;;;;7.13;5.82;;;19.80;48.30;;;;;;4963194;28;20031;-44
2020/12/06 05:41:07;;;;;;;5.90;5.30;;;19.80;48.40;;;;;;4945458;28;20037;-44
2020/12/06 05:43:33;;;;;;;5.43;4.93;;;19.80;48.40;;;;;;4948093;28;20461;-44
2020/12/06 05:46:12;;;;;;;5.25;4.75;;;19.70;48.40;;;;;;4966155;28;20041;-46
2020/12/06 05:48:37;;;;;;;5.45;4.95;;;19.70;48.40;;;;;;4956735;28;20086;-45
2020/12/06 05:51:03;;;;;;;5.40;4.90;;;19.70;48.50;;;;;;4960594;28;20051;-46
2020/12/06 05:53:29;;;;;;;5.93;4.80;;;19.60;48.40;;;;;;4947325;28;20035;-46
2020/12/06 05:56:07;;;;;;;5.22;4.72;;;19.60;48.50;;;;;;4953202;28;20039;-44
2020/12/06 05:58:33;;;;;;;4.53;4.13;;;19.60;48.50;;;;;;4966634;28;20038;-44
2020/12/06 06:01:02;;;;;;;6.03;5.00;;;19.50;48.50;;;;;;4965280;28;20043;-46
2020/12/06 06:03:29;;;;;;;5.97;5.38;;;19.50;48.50;;;;;;4980645;28;20501;-44
2020/12/06 06:05:55;;;;;;;5.55;4.78;;;19.50;48.50;;;;;;4964244;28;20027;-44
2020/12/06 06:08:22;;;;;;;5.18;4.68;;;19.40;48.50;;;;;;4964965;28;20093;-44
2020/12/06 06:11:09;;;;;;;5.70;5.10;;;19.40;48.50;;;;;;4971528;28;20550;-44
2020/12/06 06:13:36;;;;;;;5.05;4.55;;;19.40;48.50;;;;;;4961578;28;20392;-45
2020/12/06 06:16:01;;;;;;;5.07;4.03;;;19.40;48.50;;;;;;4959334;28;20035;-44
2020/12/06 06:18:26;;;;;;;5.30;4.80;;;19.40;48.50;;;;;;4964969;28;20176;-46
2020/12/06 06:20:52;;;;;;;5.57;5.00;;;19.40;48.50;;;;;;4963345;28;20035;-44
2020/12/06 06:23:17;;;;;;;5.32;4.82;;;19.30;48.50;;;;;;4973486;28;20047;-44
2020/12/06 06:25:43;;;;;;;6.53;5.05;;;19.30;48.50;;;;;;4945617;28;20042;-44
2020/12/06 06:28:09;;;;;;;5.13;4.68;;;19.20;48.50;;;;;;4944454;28;20031;-45
2020/12/06 06:30:34;;;;;;;5.53;5.03;;;19.20;48.50;;;;;;4960424;28;20070;-44
2020/12/06 06:33:13;;;;;;;6.70;5.20;;;19.20;48.50;;;;;;4960876;28;20036;-44
2020/12/06 06:35:43;;;;;;;5.70;5.20;;;19.20;48.60;;;;;;4946203;28;20398;-44
2020/12/06 06:38:09;;;;;;;5.47;4.97;;;19.10;48.60;;;;;;4965573;28;20125;-44
2020/12/06 06:40:34;;;;;;;5.32;4.82;;;19.10;48.50;;;;;;4978942;28;20133;-44
2020/12/06 06:43:02;;;;;;;5.50;4.97;;;19.10;48.50;;;;;;4960754;28;20355;-44
2020/12/06 06:45:28;;;;;;;5.10;4.60;;;19.10;48.60;;;;;;4944650;28;20035;-44
2020/12/06 06:47:53;;;;;;;5.18;4.35;;;19.00;48.60;;;;;;4960278;28;20110;-44
2020/12/06 06:50:19;;;;;;;5.07;4.57;;;19.00;48.70;;;;;;4944840;28;20042;-44
2020/12/06 06:52:44;;;;;;;5.10;4.60;;;19.10;48.80;;;;;;4961180;28;20094;-45
2020/12/06 06:55:10;;;;;;;5.13;4.40;;;19.20;49.70;;;;;;4963169;28;20030;-45
2020/12/06 06:57:39;;;;;;;4.40;4.00;;;19.30;49.30;;;;;;4963857;28;20510;-46
2020/12/06 07:00:04;;;;;;;4.47;4.07;;;19.50;49.40;;;;;;4963534;28;20452;-44
2020/12/06 07:02:34;;;;;;;4.72;4.32;;;19.60;49.50;;;;;;4978586;28;20126;-44
2020/12/06 07:05:00;;;;;;;4.55;3.42;;;19.80;49.70;;;;;;4965472;28;20030;-45
2020/12/06 07:07:51;;;;;;;4.55;4.15;;;20.00;49.60;;;;;;4965062;28;20122;-46
2020/12/06 07:10:18;;;;;;;4.07;3.67;;;20.20;49.50;;;;;;4958784;28;20046;-44
2020/12/06 07:12:46;;;;;;;4.45;4.05;;;20.20;49.30;;;;;;4964260;28;20035;-47
2020/12/06 07:15:12;;;;;;;3.85;3.55;;;20.30;49.20;;;;;;4964151;28;20043;-44
2020/12/06 07:17:38;;;;;;;4.13;3.72;;;20.30;49.10;;;;;;4964675;28;20093;-46
2020/12/06 07:20:05;;;;;;;4.85;3.65;;;20.30;48.90;;;;;;4964622;28;20035;-44
2020/12/06 07:22:31;;;;;;;4.30;3.90;;;20.30;48.80;;;;;;4964037;28;20042;-45
2020/12/06 07:24:56;;;;;;;4.00;3.58;;;20.30;48.70;;;;;;4964982;28;20089;-44
2020/12/06 07:27:22;;;;;;;4.03;3.63;;;20.40;48.70;;;;;;4964534;28;20042;-45
2020/12/06 07:29:47;;;;;;;4.40;4.00;;;20.30;48.50;;;;;;4965571;28;20097;-45
2020/12/06 07:32:13;;;;;;;4.32;3.92;;;20.30;48.40;;;;;;4964575;28;20410;-45
2020/12/06 07:34:38;;;;;;;4.43;4.03;;;20.30;48.30;;;;;;4964385;28;20026;-44
2020/12/06 07:37:04;;;;;;;4.03;3.63;;;20.30;48.30;;;;;;4965108;28;20034;-44
2020/12/06 07:39:29;;;;;;;5.60;4.30;;;20.20;48.20;;;;;;4964956;28;20109;-44
2020/12/06 07:41:55;;;;;;;4.60;4.00;;;20.20;48.20;;;;;;4964228;28;20225;-45
2020/12/06 07:44:20;;;;;;;3.80;3.50;;;20.20;48.20;;;;;;4961374;28;20031;-45
2020/12/06 07:46:58;;;;;;;6.57;4.30;;;20.20;48.10;;;;;;4964792;28;20488;-44
2020/12/06 07:49:24;;;;;;;4.70;3.90;;;20.10;48.10;;;;;;4946548;28;20034;-44
2020/12/06 07:51:49;;;;;;;5.28;4.78;;;20.10;48.00;;;;;;4964599;28;20061;-44
2020/12/06 07:54:15;;;;;;;9.00;5.57;;;20.10;48.00;;;;;;4964474;28;20527;-46
2020/12/06 07:56:40;;;;;;;6.38;5.03;;;20.00;47.60;;;;;;4964156;28;20031;-44
2020/12/06 07:59:18;;;;;;;6.32;4.70;;;20.00;47.80;;;;;;4964367;28;20054;-45
2020/12/06 08:01:44;;;;;;;6.80;4.47;;;20.00;47.70;;;;;;4943213;28;20050;-46
2020/12/06 08:04:11;;;;;;;6.97;5.00;;;20.00;47.80;;;;;;4945332;28;20090;-45
2020/12/06 08:06:37;;;;;;;5.47;4.80;;;20.00;47.90;;;;;;4962599;28;20412;-44
2020/12/06 08:09:03;;;;;;;14.93;5.13;;;19.90;47.70;;;;;;4962332;28;20027;-46
2020/12/06 08:11:36;;;;;;;7.07;5.15;;;19.90;47.70;;;;;;4946544;28;20069;-45
2020/12/06 08:14:02;;;;;;;7.80;5.75;;;19.90;47.60;;;;;;4946623;28;20110;-47
2020/12/06 08:16:28;;;;;;;8.73;4.88;;;19.80;47.60;;;;;;4961201;28;20066;-44
2020/12/06 08:19:00;;;;;;;8.13;6.05;;;19.80;47.60;;;;;;4964461;28;20039;-45
2020/12/06 08:21:39;;;;;;;7.35;5.32;;;19.80;47.60;;;;;;4962925;28;20401;-45
2020/12/06 08:24:20;;;;;;;9.43;6.60;;;19.80;47.70;;;;;;4946213;28;20455;-45
2020/12/06 08:26:46;;;;;;;7.68;6.03;;;19.80;47.70;;;;;;4964303;28;20154;-45
2020/12/06 08:29:11;;;;;;;8.40;6.32;;;19.70;47.70;;;;;;4964069;28;20051;-44
2020/12/06 08:31:37;;;;;;;11.48;6.40;;;19.70;47.70;;;;;;4961620;28;20579;-44
2020/12/06 08:34:13;;;;;;;7.30;6.40;;;19.70;47.60;;;;;;4963432;28;20053;-46
2020/12/06 08:36:39;;;;;;;10.90;7.55;;;19.60;47.60;;;;;;4961643;28;20454;-44
2020/12/06 08:39:21;;;;;;;10.93;7.38;;;19.60;47.50;;;;;;4950654;28;20118;-44
2020/12/06 08:41:47;;;;;;;8.85;6.82;;;19.60;47.60;;;;;;4960520;28;20043;-44
2020/12/06 08:44:13;;;;;;;8.50;7.18;;;19.50;47.50;;;;;;4959532;28;20036;-45
2020/12/06 08:46:47;;;;;;;11.88;6.78;;;19.60;47.60;;;;;;4954632;28;20039;-44
2020/12/06 08:49:21;;;;;;;8.85;6.55;;;19.50;47.60;;;;;;4977358;28;20102;-44
2020/12/06 08:51:51;;;;;;;12.82;7.63;;;19.50;47.60;;;;;;4962705;28;21410;-44
2020/12/06 08:54:33;;;;;;;10.18;7.65;;;19.40;47.50;;;;;;4977403;28;20038;-46
2020/12/06 08:57:11;;;;;;;11.57;7.95;;;19.40;47.50;;;;;;4948803;28;20063;-45
2020/12/06 08:59:37;;;;;;;9.68;7.53;;;19.40;47.60;;;;;;4943443;28;20046;-46
2020/12/06 09:02:03;;;;;;;11.73;7.97;;;19.40;47.80;;;;;;4943768;28;20031;-46
2020/12/06 09:04:29;;;;;;;8.20;6.95;;;19.40;47.80;;;;;;4944740;28;20054;-47
2020/12/06 09:06:56;;;;;;;9.30;6.70;;;19.30;47.80;;;;;;4967388;28;20042;-47
2020/12/06 09:09:21;;;;;;;7.93;6.70;;;19.30;47.90;;;;;;4966581;28;20035;-46
2020/12/06 09:11:51;;;;;;;7.80;7.00;;;19.20;47.90;;;;;;4965229;28;20271;-45
2020/12/06 09:14:17;;;;;;;9.65;7.57;;;19.20;47.80;;;;;;4981904;28;20046;-46
2020/12/06 09:16:42;;;;;;;10.95;8.13;;;19.20;47.90;;;;;;4966451;28;20113;-45
2020/12/06 09:19:08;;;;;;;11.85;8.38;;;19.20;47.90;;;;;;4981554;28;20031;-45
2020/12/06 09:21:33;;;;;;;10.88;8.20;;;19.10;47.90;;;;;;4966917;28;20476;-45
2020/12/06 09:23:59;;;;;;;12.23;8.75;;;19.10;47.90;;;;;;4966750;28;20461;-45
2020/12/06 09:26:24;;;;;;;11.70;9.57;;;19.10;47.90;;;;;;4965197;28;20038;-46
2020/12/06 09:28:50;;;;;;;14.40;9.43;;;19.10;48.00;;;;;;4966329;28;20077;-46
2020/12/06 09:31:15;;;;;;;15.93;9.70;;;19.10;48.00;;;;;;4965610;28;20082;-48
2020/12/06 09:33:41;;;;;;;18.05;10.35;;;19.00;48.00;;;;;;4964703;28;20065;-45
2020/12/06 09:36:06;;;;;;;16.02;10.60;;;19.00;48.10;;;;;;4965248;28;20039;-47
2020/12/06 09:38:32;;;;;;;14.18;9.52;;;19.00;48.10;;;;;;4981025;28;20042;-45
2020/12/06 09:40:57;;;;;;;15.77;10.90;;;18.90;48.10;;;;;;4966202;28;20023;-45
2020/12/06 09:43:23;;;;;;;16.33;10.88;;;18.90;48.10;;;;;;5045424;23;20055;-47
2020/12/06 09:45:49;;;;;;;15.98;10.68;;;19.00;48.20;;;;;;5045016;28;20272;-45
2020/12/06 09:48:14;;;;;;;20.90;11.75;;;18.90;48.30;;;;;;5045322;28;20397;-44
2020/12/06 09:50:40;;;;;;;15.35;10.35;;;18.90;48.40;;;;;;5045345;28;20494;-47
2020/12/06 09:53:05;;;;;;;16.90;10.07;;;19.00;48.60;;;;;;5045451;28;20029;-45
2020/12/06 09:55:31;;;;;;;13.52;9.77;;;19.10;48.80;;;;;;5045924;28;20026;-45
2020/12/06 09:57:56;;;;;;;13.05;9.60;;;19.40;49.10;;;;;;5044827;28;20106;-45
2020/12/06 10:00:22;;;;;;;12.65;9.20;;;19.50;49.00;;;;;;5043945;28;20108;-44
2020/12/06 10:02:48;;;;;;;11.27;8.05;;;19.60;49.10;;;;;;5044810;28;20039;-46
2020/12/06 10:05:13;;;;;;;13.63;8.52;;;19.80;49.10;;;;;;5045513;28;20151;-43
2020/12/06 10:07:39;;;;;;;15.60;8.93;;;19.80;49.70;;;;;;5044857;28;20212;-45
2020/12/06 10:10:07;;;;;;;11.80;8.50;;;20.00;49.10;;;;;;5044849;28;20040;-47
2020/12/06 10:12:33;;;;;;;11.25;8.70;;;20.10;49.00;;;;;;5044637;28;20029;-44
2020/12/06 10:14:58;;;;;;;11.70;8.45;;;20.10;48.90;;;;;;5044113;28;20025;-45
2020/12/06 10:17:24;;;;;;;10.73;8.27;;;20.10;48.70;;;;;;5045590;28;20037;-46
2020/12/06 10:19:50;;;;;;;11.27;8.05;;;20.10;48.60;;;;;;5043353;28;20029;-45
2020/12/06 10:22:16;;;;;;;14.10;8.18;;;20.10;48.70;;;;;;5043206;28;20029;-44
2020/12/06 10:24:41;;;;;;;12.02;7.90;;;20.20;48.50;;;;;;5044512;28;20036;-46
2020/12/06 10:27:07;;;;;;;10.05;7.63;;;20.20;48.40;;;;;;5044529;28;20017;-45
2020/12/06 10:29:32;;;;;;;10.25;8.13;;;20.10;48.30;;;;;;5044863;28;20025;-45
2020/12/06 10:32:00;;;;;;;11.75;8.13;;;20.10;48.20;;;;;;5044079;28;20410;-47
2020/12/06 10:34:25;;;;;;;10.65;8.70;;;20.10;48.10;;;;;;5044499;28;20448;-47
2020/12/06 10:36:52;;;;;;;10.40;8.30;;;20.10;48.00;;;;;;5043375;28;20029;-45
2020/12/06 10:39:17;;;;;;;10.93;8.05;;;20.00;48.00;;;;;;5044839;28;20116;-45
2020/12/06 10:41:46;;;;;;;11.13;8.30;;;20.00;48.00;;;;;;5043000;28;20167;-45
2020/12/06 10:44:12;;;;;;;13.32;10.07;;;20.00;47.90;;;;;;5044128;28;20094;-45
2020/12/06 10:46:37;;;;;;;10.65;8.27;;;20.00;47.90;;;;;;5043907;28;20116;-46
2020/12/06 10:49:03;;;;;;;17.27;9.75;;;20.00;47.90;;;;;;5044891;28;20460;-46
2020/12/06 10:51:28;;;;;;;12.02;7.95;;;19.90;47.80;;;;;;5044176;28;20478;-45
2020/12/06 10:53:54;;;;;;;12.40;9.82;;;19.90;47.80;;;;;;5044035;28;20043;-45
2020/12/06 10:56:19;;;;;;;10.88;8.23;;;19.90;47.90;;;;;;5043818;28;20033;-44
2020/12/06 10:58:45;;;;;;;11.32;8.18;;;19.80;47.70;;;;;;5044023;28;20028;-44
2020/12/06 11:01:11;;;;;;;10.13;8.27;;;19.80;47.70;;;;;;5043892;28;20064;-46
2020/12/06 11:03:36;;;;;;;12.43;8.25;;;19.80;47.70;;;;;;5044536;28;20067;-46
2020/12/06 11:06:02;;;;;;;10.40;8.07;;;19.80;47.70;;;;;;5043405;28;20034;-47
2020/12/06 11:08:27;;;;;;;9.48;7.65;;;19.70;47.70;;;;;;5043638;28;20745;-45
2020/12/06 11:10:53;;;;;;;10.20;7.57;;;19.70;47.70;;;;;;5043288;28;20072;-44
2020/12/06 11:13:19;;;;;;;11.90;8.18;;;19.60;47.60;;;;;;5043205;28;20053;-46
2020/12/06 11:15:44;;;;;;;9.18;7.53;;;19.60;47.60;;;;;;5044078;28;20044;-49
2020/12/06 11:18:10;;;;;;;9.50;6.93;;;19.60;47.60;;;;;;5043131;28;20041;-45
2020/12/06 11:20:36;;;;;;;9.27;7.55;;;19.50;47.60;;;;;;5042763;28;20048;-45
2020/12/06 11:23:01;;;;;;;8.55;7.05;;;19.50;47.60;;;;;;5042691;28;20233;-45
2020/12/06 11:25:27;;;;;;;9.57;7.43;;;19.50;47.60;;;;;;5042406;28;20033;-45
2020/12/06 11:27:52;;;;;;;9.50;7.70;;;19.40;47.60;;;;;;5043466;28;20033;-45
2020/12/06 11:30:17;;;;;;;9.73;7.28;;;19.40;47.60;;;;;;5042839;28;20505;-45
2020/12/06 11:32:43;;;;;;;9.40;8.07;;;19.40;47.70;;;;;;5042878;28;20025;-45
2020/12/06 11:35:08;;;;;;;8.80;7.38;;;19.40;47.60;;;;;;5043171;28;20215;-46
2020/12/06 11:37:34;;;;;;;8.10;6.90;;;19.40;47.50;;;;;;5043144;28;20382;-44
2020/12/06 11:39:59;;;;;;;8.00;7.13;;;19.40;47.60;;;;;;5042900;28;20033;-48
2020/12/06 11:42:25;;;;;;;7.38;6.57;;;19.30;47.50;;;;;;5043703;28;20076;-45
2020/12/06 11:44:50;;;;;;;8.25;7.32;;;19.30;47.60;;;;;;5042793;28;20293;-45
2020/12/06 11:47:21;;;;;;;9.05;7.20;;;19.30;47.60;;;;;;5042799;28;20067;-47
2020/12/06 11:49:46;;;;;;;8.10;6.50;;;19.20;47.50;;;;;;5041569;28;20128;-45
2020/12/06 11:52:12;;;;;;;8.95;7.30;;;19.20;47.60;;;;;;5042693;28;20553;-44
2020/12/06 11:54:37;;;;;;;9.35;7.28;;;19.20;47.60;;;;;;5043327;28;20040;-45
2020/12/06 11:57:03;;;;;;;10.18;5.90;;;19.10;47.60;;;;;;5042324;28;20029;-45
2020/12/06 11:59:28;;;;;;;8.00;6.60;;;19.10;47.60;;;;;;5042640;28;20044;-54
2020/12/06 12:01:54;;;;;;;11.52;7.65;;;19.10;47.60;;;;;;5042345;28;20033;-45
2020/12/06 12:04:19;;;;;;;7.75;6.68;;;19.10;47.60;;;;;;5042386;28;20171;-45
2020/12/06 12:06:46;;;;;;;7.75;6.55;;;19.10;47.60;;;;;;5042410;28;20035;-45
2020/12/06 12:09:12;;;;;;;7.75;6.00;;;19.10;47.70;;;;;;5042150;28;20041;-44
2020/12/06 12:11:37;;;;;;;9.40;6.60;;;19.00;47.70;;;;;;5042137;28;20032;-46
2020/12/06 12:14:03;;;;;;;7.28;6.35;;;19.00;47.70;;;;;;5042680;28;20498;-44
2020/12/06 12:16:28;;;;;;;7.03;6.32;;;19.20;48.00;;;;;;5043919;28;20039;-45
2020/12/06 12:18:54;;;;;;;8.63;6.10;;;19.30;48.20;;;;;;5042576;28;20025;-45
2020/12/06 12:21:19;;;;;;;7.00;6.05;;;19.40;48.20;;;;;;5041969;28;20745;-45
2020/12/06 12:23:45;;;;;;;6.95;5.60;;;19.50;48.30;;;;;;5041908;28;20029;-46
2020/12/06 12:26:10;;;;;;;6.55;5.43;;;19.60;48.30;;;;;;5042320;28;20414;-45
2020/12/06 12:28:36;;;;;;;7.35;6.00;;;19.80;48.40;;;;;;5042796;28;20033;-47
2020/12/06 12:31:01;;;;;;;5.88;5.10;;;19.80;48.40;;;;;;5041375;28;20120;-48
2020/12/06 12:33:26;;;;;;;6.43;5.72;;;19.90;48.30;;;;;;5042447;28;20045;-45
2020/12/06 12:35:52;;;;;;;7.43;6.20;;;20.00;48.30;;;;;;5042558;28;20429;-45
2020/12/06 12:38:17;;;;;;;5.95;5.35;;;20.00;48.20;;;;;;5044100;28;20029;-45
2020/12/06 12:40:43;;;;;;;6.32;5.53;;;20.00;48.10;;;;;;5045562;28;20716;-48